Loading... Please wait...

Mandarin B737-800(W) (New Livery) B-18659 w/Stand 

  • Image 1
$69.95
SKU:
JC-JCW-2MDA862
Brand:
Shipping:
Calculated at checkout
Quantity:


JC Wings 1:200 JCW-2MDA862
Mandarin B737-800(W) (New Livery) B-18659 w/Stand
Scale:
1:200
Length:
7.75"
Width:
7"
SKU:
JC-JCW-2MDA862


Historical Note:

jc-wings-logo-15-150x150.jpg 

Info: Mandarin B737-800(W) (New Livery) B-18659 w/Stand


Product Videos

Mandarin B737-800 Landing RCTP 23L(B-16805) (03:44)
RCTP 250500Z 26022KT 9999 SCT020 SCT040 33/26 Q1006 NOSIG RMK A2972
  • Mandarin B737-...
    RCTP 250500Z 26022KT 9999 SCT020 SCT040 33/26 Q1006 NOSIG RMK ...

Write your own product review

Product Reviews

This product hasn't received any reviews yet. Be the first to review this product!